sensor_id;sensor_type;location;lat;lon;timestamp;P1;durP1;ratioP1;P2;durP2;ratioP2
19951;SDS011;10137;49.406;19.484;2023-03-03T00:01:32;67.93;;;31.43;;
19951;SDS011;10137;49.406;19.484;2023-03-03T00:03:59;69.83;;;32.33;;
19951;SDS011;10137;49.406;19.484;2023-03-03T00:06:28;68.73;;;30.53;;
19951;SDS011;10137;49.406;19.484;2023-03-03T00:08:55;61.83;;;30.07;;
19951;SDS011;10137;49.406;19.484;2023-03-03T00:11:22;69.87;;;37.10;;
19951;SDS011;10137;49.406;19.484;2023-03-03T00:13:50;70.73;;;34.17;;
19951;SDS011;10137;49.406;19.484;2023-03-03T00:16:21;71.37;;;33.87;;
19951;SDS011;10137;49.406;19.484;2023-03-03T00:18:49;72.07;;;33.63;;
19951;SDS011;10137;49.406;19.484;2023-03-03T00:21:22;72.83;;;33.07;;
19951;SDS011;10137;49.406;19.484;2023-03-03T00:23:55;68.17;;;31.37;;
19951;SDS011;10137;49.406;19.484;2023-03-03T00:26:36;68.10;;;31.97;;
19951;SDS011;10137;49.406;19.484;2023-03-03T00:29:18;76.87;;;33.50;;
19951;SDS011;10137;49.406;19.484;2023-03-03T00:31:52;75.90;;;35.47;;
19951;SDS011;10137;49.406;19.484;2023-03-03T00:34:23;72.93;;;33.23;;
19951;SDS011;10137;49.406;19.484;2023-03-03T00:36:52;70.13;;;31.20;;
19951;SDS011;10137;49.406;19.484;2023-03-03T00:39:25;57.83;;;29.97;;
19951;SDS011;10137;49.406;19.484;2023-03-03T00:41:55;63.83;;;28.07;;
19951;SDS011;10137;49.406;19.484;2023-03-03T00:44:40;53.17;;;25.57;;
19951;SDS011;10137;49.406;19.484;2023-03-03T00:47:22;59.73;;;26.97;;
19951;SDS011;10137;49.406;19.484;2023-03-03T00:49:52;56.70;;;26.90;;
19951;SDS011;10137;49.406;19.484;2023-03-03T00:52:20;55.07;;;26.30;;
19951;SDS011;10137;49.406;19.484;2023-03-03T00:54:54;55.53;;;26.60;;
19951;SDS011;10137;49.406;19.484;2023-03-03T00:57:21;61.03;;;27.17;;
19951;SDS011;10137;49.406;19.484;2023-03-03T00:59:48;66.53;;;29.90;;
19951;SDS011;10137;49.406;19.484;2023-03-03T01:02:15;65.23;;;28.43;;
19951;SDS011;10137;49.406;19.484;2023-03-03T01:04:42;56.53;;;27.63;;
19951;SDS011;10137;49.406;19.484;2023-03-03T01:07:14;60.37;;;27.77;;
19951;SDS011;10137;49.406;19.484;2023-03-03T01:09:40;56.07;;;27.87;;
19951;SDS011;10137;49.406;19.484;2023-03-03T01:12:09;57.53;;;29.10;;
19951;SDS011;10137;49.406;19.484;2023-03-03T01:14:37;58.87;;;32.67;;
19951;SDS011;10137;49.406;19.484;2023-03-03T01:17:04;62.50;;;35.23;;
19951;SDS011;10137;49.406;19.484;2023-03-03T01:19:32;57.13;;;32.07;;
19951;SDS011;10137;49.406;19.484;2023-03-03T01:21:59;53.40;;;31.27;;
19951;SDS011;10137;49.406;19.484;2023-03-03T01:24:26;61.43;;;28.43;;
19951;SDS011;10137;49.406;19.484;2023-03-03T01:26:53;51.53;;;26.37;;
19951;SDS011;10137;49.406;19.484;2023-03-03T01:29:22;56.40;;;26.63;;
19951;SDS011;10137;49.406;19.484;2023-03-03T01:31:49;58.57;;;27.40;;
19951;SDS011;10137;49.406;19.484;2023-03-03T01:34:16;56.33;;;28.10;;
19951;SDS011;10137;49.406;19.484;2023-03-03T01:36:43;56.80;;;27.33;;
19951;SDS011;10137;49.406;19.484;2023-03-03T01:39:10;60.30;;;26.77;;
19951;SDS011;10137;49.406;19.484;2023-03-03T01:41:37;54.00;;;25.87;;
19951;SDS011;10137;49.406;19.484;2023-03-03T01:44:05;56.17;;;27.03;;
19951;SDS011;10137;49.406;19.484;2023-03-03T01:46:45;61.30;;;27.73;;
19951;SDS011;10137;49.406;19.484;2023-03-03T01:49:17;61.37;;;28.33;;
19951;SDS011;10137;49.406;19.484;2023-03-03T01:51:48;58.70;;;27.03;;
19951;SDS011;10137;49.406;19.484;2023-03-03T01:54:20;55.50;;;26.47;;
19951;SDS011;10137;49.406;19.484;2023-03-03T01:56:52;50.50;;;24.13;;
19951;SDS011;10137;49.406;19.484;2023-03-03T01:59:24;45.37;;;23.53;;
19951;SDS011;10137;49.406;19.484;2023-03-03T02:01:56;46.70;;;22.50;;
19951;SDS011;10137;49.406;19.484;2023-03-03T02:04:23;50.80;;;23.90;;
19951;SDS011;10137;49.406;19.484;2023-03-03T02:06:53;48.90;;;23.87;;
19951;SDS011;10137;49.406;19.484;2023-03-03T02:09:25;51.23;;;24.27;;
19951;SDS011;10137;49.406;19.484;2023-03-03T02:11:58;51.23;;;23.33;;
19951;SDS011;10137;49.406;19.484;2023-03-03T02:14:28;49.37;;;23.37;;
19951;SDS011;10137;49.406;19.484;2023-03-03T02:16:56;48.37;;;23.80;;
19951;SDS011;10137;49.406;19.484;2023-03-03T02:19:26;48.80;;;23.87;;
19951;SDS011;10137;49.406;19.484;2023-03-03T02:22:00;47.03;;;22.57;;
19951;SDS011;10137;49.406;19.484;2023-03-03T02:24:29;53.20;;;24.87;;
19951;SDS011;10137;49.406;19.484;2023-03-03T02:27:01;49.70;;;25.10;;
19951;SDS011;10137;49.406;19.484;2023-03-03T02:29:28;50.50;;;22.93;;
19951;SDS011;10137;49.406;19.484;2023-03-03T02:31:55;45.57;;;21.80;;
19951;SDS011;10137;49.406;19.484;2023-03-03T02:34:23;50.33;;;23.00;;
19951;SDS011;10137;49.406;19.484;2023-03-03T02:36:49;48.23;;;22.87;;
19951;SDS011;10137;49.406;19.484;2023-03-03T02:39:19;47.27;;;23.37;;
19951;SDS011;10137;49.406;19.484;2023-03-03T02:41:48;50.70;;;23.10;;
19951;SDS011;10137;49.406;19.484;2023-03-03T02:44:20;47.50;;;22.20;;
19951;SDS011;10137;49.406;19.484;2023-03-03T02:46:48;46.90;;;22.77;;
19951;SDS011;10137;49.406;19.484;2023-03-03T02:49:17;47.83;;;22.70;;
19951;SDS011;10137;49.406;19.484;2023-03-03T02:51:46;43.30;;;21.70;;
19951;SDS011;10137;49.406;19.484;2023-03-03T02:54:13;51.17;;;22.23;;
19951;SDS011;10137;49.406;19.484;2023-03-03T02:56:41;43.63;;;20.83;;
19951;SDS011;10137;49.406;19.484;2023-03-03T02:59:09;45.80;;;21.30;;
19951;SDS011;10137;49.406;19.484;2023-03-03T03:01:37;45.43;;;20.10;;
19951;SDS011;10137;49.406;19.484;2023-03-03T03:04:06;41.93;;;20.23;;
19951;SDS011;10137;49.406;19.484;2023-03-03T03:06:35;43.10;;;20.07;;
19951;SDS011;10137;49.406;19.484;2023-03-03T03:09:03;42.07;;;20.17;;
19951;SDS011;10137;49.406;19.484;2023-03-03T03:11:31;40.67;;;21.83;;
19951;SDS011;10137;49.406;19.484;2023-03-03T03:13:59;43.27;;;19.27;;
19951;SDS011;10137;49.406;19.484;2023-03-03T03:16:26;40.20;;;19.27;;
19951;SDS011;10137;49.406;19.484;2023-03-03T03:18:54;48.03;;;21.97;;
19951;SDS011;10137;49.406;19.484;2023-03-03T03:21:22;43.27;;;22.03;;
19951;SDS011;10137;49.406;19.484;2023-03-03T03:23:49;46.97;;;22.13;;
19951;SDS011;10137;49.406;19.484;2023-03-03T03:26:16;49.30;;;27.20;;
19951;SDS011;10137;49.406;19.484;2023-03-03T03:28:45;46.03;;;23.00;;
19951;SDS011;10137;49.406;19.484;2023-03-03T03:31:12;47.83;;;24.23;;
19951;SDS011;10137;49.406;19.484;2023-03-03T03:33:39;44.00;;;22.50;;
19951;SDS011;10137;49.406;19.484;2023-03-03T03:36:08;39.23;;;18.23;;
19951;SDS011;10137;49.406;19.484;2023-03-03T03:38:35;40.53;;;19.07;;
19951;SDS011;10137;49.406;19.484;2023-03-03T03:41:03;46.97;;;25.83;;
19951;SDS011;10137;49.406;19.484;2023-03-03T03:43:31;45.47;;;19.87;;
19951;SDS011;10137;49.406;19.484;2023-03-03T03:45:58;40.50;;;17.90;;
19951;SDS011;10137;49.406;19.484;2023-03-03T03:48:25;42.37;;;18.80;;
19951;SDS011;10137;49.406;19.484;2023-03-03T03:50:52;41.37;;;19.00;;
19951;SDS011;10137;49.406;19.484;2023-03-03T03:53:20;42.13;;;18.97;;
19951;SDS011;10137;49.406;19.484;2023-03-03T03:55:47;41.07;;;19.43;;
19951;SDS011;10137;49.406;19.484;2023-03-03T03:58:14;43.47;;;20.00;;
19951;SDS011;10137;49.406;19.484;2023-03-03T04:00:43;36.00;;;17.73;;
19951;SDS011;10137;49.406;19.484;2023-03-03T04:03:11;43.40;;;19.67;;
19951;SDS011;10137;49.406;19.484;2023-03-03T04:05:39;44.83;;;20.10;;
19951;SDS011;10137;49.406;19.484;2023-03-03T04:08:06;45.67;;;21.37;;
19951;SDS011;10137;49.406;19.484;2023-03-03T04:10:35;45.53;;;21.40;;
19951;SDS011;10137;49.406;19.484;2023-03-03T04:13:02;53.80;;;27.13;;
19951;SDS011;10137;49.406;19.484;2023-03-03T04:15:29;50.90;;;24.33;;
19951;SDS011;10137;49.406;19.484;2023-03-03T04:17:56;43.87;;;21.03;;
19951;SDS011;10137;49.406;19.484;2023-03-03T04:20:23;38.20;;;18.87;;
19951;SDS011;10137;49.406;19.484;2023-03-03T04:22:50;37.53;;;17.97;;
19951;SDS011;10137;49.406;19.484;2023-03-03T04:25:17;39.33;;;17.80;;
19951;SDS011;10137;49.406;19.484;2023-03-03T04:27:46;40.03;;;18.60;;
19951;SDS011;10137;49.406;19.484;2023-03-03T04:30:13;37.13;;;17.87;;
19951;SDS011;10137;49.406;19.484;2023-03-03T04:32:42;38.90;;;18.10;;
19951;SDS011;10137;49.406;19.484;2023-03-03T04:35:09;42.60;;;18.57;;
19951;SDS011;10137;49.406;19.484;2023-03-03T04:37:36;51.57;;;20.87;;
19951;SDS011;10137;49.406;19.484;2023-03-03T04:40:04;48.07;;;23.33;;
19951;SDS011;10137;49.406;19.484;2023-03-03T04:42:32;44.30;;;19.87;;
19951;SDS011;10137;49.406;19.484;2023-03-03T04:45:01;40.70;;;19.37;;
19951;SDS011;10137;49.406;19.484;2023-03-03T04:47:29;44.47;;;20.33;;
19951;SDS011;10137;49.406;19.484;2023-03-03T04:49:56;39.17;;;18.10;;
19951;SDS011;10137;49.406;19.484;2023-03-03T04:52:23;39.13;;;17.70;;
19951;SDS011;10137;49.406;19.484;2023-03-03T04:54:50;36.43;;;17.30;;
19951;SDS011;10137;49.406;19.484;2023-03-03T04:57:17;41.73;;;18.87;;
19951;SDS011;10137;49.406;19.484;2023-03-03T04:59:44;43.10;;;18.40;;
19951;SDS011;10137;49.406;19.484;2023-03-03T05:02:13;43.13;;;18.57;;
19951;SDS011;10137;49.406;19.484;2023-03-03T05:04:41;38.23;;;18.07;;
19951;SDS011;10137;49.406;19.484;2023-03-03T05:07:08;38.57;;;16.77;;
19951;SDS011;10137;49.406;19.484;2023-03-03T05:09:35;37.60;;;17.27;;
19951;SDS011;10137;49.406;19.484;2023-03-03T05:12:02;33.03;;;16.47;;
19951;SDS011;10137;49.406;19.484;2023-03-03T05:14:29;34.93;;;17.30;;
19951;SDS011;10137;49.406;19.484;2023-03-03T05:16:56;40.00;;;18.33;;
19951;SDS011;10137;49.406;19.484;2023-03-03T05:19:25;38.57;;;22.57;;
19951;SDS011;10137;49.406;19.484;2023-03-03T05:21:52;44.23;;;22.67;;
19951;SDS011;10137;49.406;19.484;2023-03-03T05:24:19;40.63;;;19.00;;
19951;SDS011;10137;49.406;19.484;2023-03-03T05:26:46;35.93;;;18.97;;
19951;SDS011;10137;49.406;19.484;2023-03-03T05:29:13;37.53;;;18.77;;
19951;SDS011;10137;49.406;19.484;2023-03-03T05:31:41;34.57;;;18.23;;
19951;SDS011;10137;49.406;19.484;2023-03-03T05:34:08;34.57;;;18.63;;
19951;SDS011;10137;49.406;19.484;2023-03-03T05:36:36;37.27;;;18.03;;
19951;SDS011;10137;49.406;19.484;2023-03-03T05:39:03;36.67;;;17.57;;
19951;SDS011;10137;49.406;19.484;2023-03-03T05:41:30;35.63;;;17.83;;
19951;SDS011;10137;49.406;19.484;2023-03-03T05:44:00;35.20;;;17.20;;
19951;SDS011;10137;49.406;19.484;2023-03-03T05:46:27;41.27;;;18.87;;
19951;SDS011;10137;49.406;19.484;2023-03-03T05:48:55;38.50;;;18.60;;
19951;SDS011;10137;49.406;19.484;2023-03-03T05:51:22;45.17;;;21.03;;
19951;SDS011;10137;49.406;19.484;2023-03-03T05:53:50;46.23;;;23.67;;
19951;SDS011;10137;49.406;19.484;2023-03-03T05:56:17;43.27;;;19.93;;
19951;SDS011;10137;49.406;19.484;2023-03-03T05:58:44;50.33;;;23.73;;
19951;SDS011;10137;49.406;19.484;2023-03-03T06:01:11;48.63;;;22.30;;
19951;SDS011;10137;49.406;19.484;2023-03-03T06:03:38;42.13;;;20.83;;
19951;SDS011;10137;49.406;19.484;2023-03-03T06:06:06;42.37;;;19.00;;
19951;SDS011;10137;49.406;19.484;2023-03-03T06:08:33;41.77;;;20.10;;
19951;SDS011;10137;49.406;19.484;2023-03-03T06:11:02;43.43;;;18.53;;
19951;SDS011;10137;49.406;19.484;2023-03-03T06:13:29;40.53;;;19.73;;
19951;SDS011;10137;49.406;19.484;2023-03-03T06:15:56;44.60;;;19.40;;
19951;SDS011;10137;49.406;19.484;2023-03-03T06:18:23;38.83;;;18.03;;
19951;SDS011;10137;49.406;19.484;2023-03-03T06:20:50;36.83;;;18.50;;
19951;SDS011;10137;49.406;19.484;2023-03-03T06:23:18;37.03;;;17.40;;
19951;SDS011;10137;49.406;19.484;2023-03-03T06:25:45;32.10;;;16.57;;
19951;SDS011;10137;49.406;19.484;2023-03-03T06:28:13;52.00;;;19.43;;
19951;SDS011;10137;49.406;19.484;2023-03-03T06:30:41;37.23;;;17.70;;
19951;SDS011;10137;49.406;19.484;2023-03-03T06:33:08;36.60;;;18.63;;
19951;SDS011;10137;49.406;19.484;2023-03-03T06:35:35;39.77;;;17.53;;
19951;SDS011;10137;49.406;19.484;2023-03-03T06:38:02;37.93;;;17.63;;
19951;SDS011;10137;49.406;19.484;2023-03-03T06:40:29;34.23;;;17.83;;
19951;SDS011;10137;49.406;19.484;2023-03-03T06:42:56;35.97;;;17.77;;
19951;SDS011;10137;49.406;19.484;2023-03-03T06:45:25;32.23;;;16.33;;
19951;SDS011;10137;49.406;19.484;2023-03-03T06:47:52;35.63;;;17.10;;
19951;SDS011;10137;49.406;19.484;2023-03-03T06:50:19;31.10;;;15.53;;
19951;SDS011;10137;49.406;19.484;2023-03-03T06:52:46;35.00;;;16.17;;
19951;SDS011;10137;49.406;19.484;2023-03-03T06:55:15;34.63;;;16.80;;
19951;SDS011;10137;49.406;19.484;2023-03-03T06:57:47;39.77;;;15.73;;
19951;SDS011;10137;49.406;19.484;2023-03-03T07:00:15;32.90;;;16.70;;
19951;SDS011;10137;49.406;19.484;2023-03-03T07:02:46;37.97;;;16.93;;
19951;SDS011;10137;49.406;19.484;2023-03-03T07:05:25;31.40;;;15.67;;
19951;SDS011;10137;49.406;19.484;2023-03-03T07:07:53;35.33;;;17.33;;
19951;SDS011;10137;49.406;19.484;2023-03-03T07:10:22;36.17;;;17.53;;
19951;SDS011;10137;49.406;19.484;2023-03-03T07:12:50;50.47;;;22.50;;
19951;SDS011;10137;49.406;19.484;2023-03-03T07:15:19;42.43;;;20.60;;
19951;SDS011;10137;49.406;19.484;2023-03-03T07:17:51;44.47;;;20.33;;
19951;SDS011;10137;49.406;19.484;2023-03-03T07:20:23;37.57;;;17.90;;
19951;SDS011;10137;49.406;19.484;2023-03-03T07:22:55;44.73;;;19.50;;
19951;SDS011;10137;49.406;19.484;2023-03-03T07:25:25;55.50;;;25.63;;
19951;SDS011;10137;49.406;19.484;2023-03-03T07:27:57;53.43;;;25.13;;
19951;SDS011;10137;49.406;19.484;2023-03-03T07:30:35;47.43;;;22.43;;
19951;SDS011;10137;49.406;19.484;2023-03-03T07:33:07;44.57;;;20.87;;
19951;SDS011;10137;49.406;19.484;2023-03-03T07:35:44;52.47;;;22.47;;
19951;SDS011;10137;49.406;19.484;2023-03-03T07:38:16;43.30;;;21.60;;
19951;SDS011;10137;49.406;19.484;2023-03-03T07:40:48;48.73;;;21.63;;
19951;SDS011;10137;49.406;19.484;2023-03-03T07:43:26;42.70;;;21.50;;
19951;SDS011;10137;49.406;19.484;2023-03-03T07:45:57;47.20;;;21.97;;
19951;SDS011;10137;49.406;19.484;2023-03-03T07:48:30;52.47;;;23.93;;
19951;SDS011;10137;49.406;19.484;2023-03-03T07:51:02;43.23;;;22.17;;
19951;SDS011;10137;49.406;19.484;2023-03-03T07:53:37;49.93;;;24.73;;
19951;SDS011;10137;49.406;19.484;2023-03-03T07:56:06;45.43;;;22.43;;
19951;SDS011;10137;49.406;19.484;2023-03-03T07:58:44;45.97;;;23.07;;
19951;SDS011;10137;49.406;19.484;2023-03-03T08:07:02;44.40;;;20.67;;
19951;SDS011;10137;49.406;19.484;2023-03-03T08:09:38;46.10;;;22.97;;
19951;SDS011;10137;49.406;19.484;2023-03-03T08:12:23;43.17;;;21.47;;
19951;SDS011;10137;49.406;19.484;2023-03-03T08:15:18;47.47;;;22.03;;
19951;SDS011;10137;49.406;19.484;2023-03-03T08:17:47;45.60;;;21.27;;
19951;SDS011;10137;49.406;19.484;2023-03-03T08:23:19;37.80;;;18.47;;
19951;SDS011;10137;49.406;19.484;2023-03-03T08:25:47;43.87;;;19.27;;
19951;SDS011;10137;49.406;19.484;2023-03-03T08:31:06;44.60;;;21.70;;
19951;SDS011;10137;49.406;19.484;2023-03-03T08:33:33;44.93;;;22.57;;
19951;SDS011;10137;49.406;19.484;2023-03-03T08:36:01;55.43;;;24.20;;
19951;SDS011;10137;49.406;19.484;2023-03-03T08:38:29;60.07;;;24.27;;
19951;SDS011;10137;49.406;19.484;2023-03-03T08:40:56;52.03;;;24.37;;
19951;SDS011;10137;49.406;19.484;2023-03-03T08:43:23;49.00;;;24.30;;
19951;SDS011;10137;49.406;19.484;2023-03-03T08:45:50;45.63;;;24.20;;
19951;SDS011;10137;49.406;19.484;2023-03-03T08:48:19;46.77;;;22.73;;
19951;SDS011;10137;49.406;19.484;2023-03-03T08:50:47;45.53;;;22.83;;
19951;SDS011;10137;49.406;19.484;2023-03-03T08:53:15;40.57;;;21.77;;
19951;SDS011;10137;49.406;19.484;2023-03-03T08:55:43;39.70;;;21.40;;
19951;SDS011;10137;49.406;19.484;2023-03-03T08:58:10;40.53;;;21.73;;
19951;SDS011;10137;49.406;19.484;2023-03-03T09:00:37;37.47;;;20.50;;
19951;SDS011;10137;49.406;19.484;2023-03-03T09:03:04;37.27;;;20.00;;
19951;SDS011;10137;49.406;19.484;2023-03-03T09:05:32;43.47;;;20.37;;
19951;SDS011;10137;49.406;19.484;2023-03-03T09:08:00;40.27;;;21.23;;
19951;SDS011;10137;49.406;19.484;2023-03-03T09:10:29;37.30;;;20.43;;
19951;SDS011;10137;49.406;19.484;2023-03-03T09:12:57;40.33;;;21.17;;
19951;SDS011;10137;49.406;19.484;2023-03-03T09:15:30;40.97;;;20.70;;
19951;SDS011;10137;49.406;19.484;2023-03-03T09:17:59;35.47;;;19.00;;
19951;SDS011;10137;49.406;19.484;2023-03-03T09:20:36;39.47;;;20.47;;
19951;SDS011;10137;49.406;19.484;2023-03-03T09:23:21;37.83;;;18.27;;
19951;SDS011;10137;49.406;19.484;2023-03-03T09:26:17;33.80;;;18.13;;
19951;SDS011;10137;49.406;19.484;2023-03-03T09:28:53;39.47;;;18.83;;
19951;SDS011;10137;49.406;19.484;2023-03-03T09:31:23;30.77;;;16.73;;
19951;SDS011;10137;49.406;19.484;2023-03-03T09:33:52;33.97;;;17.70;;
19951;SDS011;10137;49.406;19.484;2023-03-03T09:36:23;30.47;;;17.77;;
19951;SDS011;10137;49.406;19.484;2023-03-03T09:38:52;33.97;;;17.37;;
19951;SDS011;10137;49.406;19.484;2023-03-03T09:41:41;38.60;;;18.17;;
19951;SDS011;10137;49.406;19.484;2023-03-03T09:44:43;46.03;;;18.27;;
19951;SDS011;10137;49.406;19.484;2023-03-03T09:50:25;34.63;;;17.37;;
19951;SDS011;10137;49.406;19.484;2023-03-03T09:53:03;31.43;;;16.77;;
19951;SDS011;10137;49.406;19.484;2023-03-03T09:55:44;40.20;;;18.90;;
19951;SDS011;10137;49.406;19.484;2023-03-03T09:58:29;32.93;;;18.47;;
19951;SDS011;10137;49.406;19.484;2023-03-03T10:01:05;36.50;;;18.17;;
19951;SDS011;10137;49.406;19.484;2023-03-03T10:03:54;33.47;;;16.43;;
19951;SDS011;10137;49.406;19.484;2023-03-03T10:06:37;32.83;;;17.67;;
19951;SDS011;10137;49.406;19.484;2023-03-03T10:09:19;35.13;;;18.27;;
19951;SDS011;10137;49.406;19.484;2023-03-03T10:12:15;28.57;;;14.37;;
19951;SDS011;10137;49.406;19.484;2023-03-03T10:15:00;30.43;;;15.23;;
19951;SDS011;10137;49.406;19.484;2023-03-03T10:17:48;31.27;;;16.63;;
19951;SDS011;10137;49.406;19.484;2023-03-03T10:20:34;32.60;;;17.40;;
19951;SDS011;10137;49.406;19.484;2023-03-03T10:23:14;41.97;;;16.83;;
19951;SDS011;10137;49.406;19.484;2023-03-03T10:25:50;26.93;;;15.27;;
19951;SDS011;10137;49.406;19.484;2023-03-03T10:31:22;36.80;;;16.03;;
19951;SDS011;10137;49.406;19.484;2023-03-03T10:34:01;27.20;;;15.43;;
19951;SDS011;10137;49.406;19.484;2023-03-03T10:36:51;29.37;;;15.47;;
19951;SDS011;10137;49.406;19.484;2023-03-03T10:39:24;31.07;;;15.47;;
19951;SDS011;10137;49.406;19.484;2023-03-03T10:42:08;31.63;;;15.97;;
19951;SDS011;10137;49.406;19.484;2023-03-03T10:44:50;30.37;;;15.90;;
19951;SDS011;10137;49.406;19.484;2023-03-03T10:50:25;36.90;;;17.10;;
19951;SDS011;10137;49.406;19.484;2023-03-03T10:53:00;33.50;;;15.80;;
19951;SDS011;10137;49.406;19.484;2023-03-03T10:55:41;32.93;;;16.17;;
19951;SDS011;10137;49.406;19.484;2023-03-03T10:58:29;32.80;;;16.60;;
19951;SDS011;10137;49.406;19.484;2023-03-03T11:01:14;35.80;;;16.13;;
19951;SDS011;10137;49.406;19.484;2023-03-03T11:03:55;31.10;;;16.43;;
19951;SDS011;10137;49.406;19.484;2023-03-03T11:06:48;28.00;;;16.30;;
19951;SDS011;10137;49.406;19.484;2023-03-03T11:09:29;37.33;;;16.90;;
19951;SDS011;10137;49.406;19.484;2023-03-03T11:12:07;25.27;;;15.20;;
19951;SDS011;10137;49.406;19.484;2023-03-03T11:14:49;30.30;;;14.60;;
19951;SDS011;10137;49.406;19.484;2023-03-03T11:17:24;28.10;;;14.23;;
19951;SDS011;10137;49.406;19.484;2023-03-03T11:20:02;24.10;;;14.90;;
19951;SDS011;10137;49.406;19.484;2023-03-03T11:22:37;29.57;;;15.07;;
19951;SDS011;10137;49.406;19.484;2023-03-03T11:25:15;28.23;;;13.27;;
19951;SDS011;10137;49.406;19.484;2023-03-03T11:28:05;30.63;;;14.50;;
19951;SDS011;10137;49.406;19.484;2023-03-03T11:30:49;22.33;;;13.80;;
19951;SDS011;10137;49.406;19.484;2023-03-03T11:33:30;26.30;;;13.07;;
19951;SDS011;10137;49.406;19.484;2023-03-03T11:36:11;21.93;;;12.70;;
19951;SDS011;10137;49.406;19.484;2023-03-03T11:38:50;25.57;;;13.47;;
19951;SDS011;10137;49.406;19.484;2023-03-03T11:41:27;25.33;;;12.37;;
19951;SDS011;10137;49.406;19.484;2023-03-03T11:43:57;23.07;;;13.00;;
19951;SDS011;10137;49.406;19.484;2023-03-03T11:46:33;20.53;;;11.33;;
19951;SDS011;10137;49.406;19.484;2023-03-03T11:49:06;22.63;;;10.70;;
19951;SDS011;10137;49.406;19.484;2023-03-03T11:51:46;18.10;;;9.97;;
19951;SDS011;10137;49.406;19.484;2023-03-03T11:54:19;17.27;;;10.30;;
19951;SDS011;10137;49.406;19.484;2023-03-03T11:56:50;23.53;;;9.03;;
19951;SDS011;10137;49.406;19.484;2023-03-03T11:59:28;24.27;;;7.63;;
19951;SDS011;10137;49.406;19.484;2023-03-03T12:02:12;14.50;;;7.87;;
19951;SDS011;10137;49.406;19.484;2023-03-03T12:04:57;17.73;;;8.13;;
19951;SDS011;10137;49.406;19.484;2023-03-03T12:07:32;26.30;;;9.23;;
19951;SDS011;10137;49.406;19.484;2023-03-03T12:10:12;21.47;;;9.80;;
19951;SDS011;10137;49.406;19.484;2023-03-03T12:12:47;15.63;;;9.50;;
19951;SDS011;10137;49.406;19.484;2023-03-03T12:15:23;28.00;;;11.20;;
19951;SDS011;10137;49.406;19.484;2023-03-03T12:21:10;24.40;;;12.20;;
19951;SDS011;10137;49.406;19.484;2023-03-03T12:23:54;30.07;;;14.23;;
19951;SDS011;10137;49.406;19.484;2023-03-03T12:26:31;29.53;;;13.57;;
19951;SDS011;10137;49.406;19.484;2023-03-03T12:29:08;34.97;;;14.77;;
19951;SDS011;10137;49.406;19.484;2023-03-03T12:31:46;27.07;;;13.20;;
19951;SDS011;10137;49.406;19.484;2023-03-03T12:34:17;30.23;;;15.93;;
19951;SDS011;10137;49.406;19.484;2023-03-03T12:36:53;32.63;;;15.50;;
19951;SDS011;10137;49.406;19.484;2023-03-03T12:42:20;29.40;;;15.60;;
19951;SDS011;10137;49.406;19.484;2023-03-03T12:44:58;32.47;;;15.13;;
19951;SDS011;10137;49.406;19.484;2023-03-03T12:47:33;29.03;;;14.43;;
19951;SDS011;10137;49.406;19.484;2023-03-03T12:50:17;24.97;;;13.63;;
19951;SDS011;10137;49.406;19.484;2023-03-03T12:53:00;34.00;;;15.70;;
19951;SDS011;10137;49.406;19.484;2023-03-03T12:55:41;27.00;;;14.97;;
19951;SDS011;10137;49.406;19.484;2023-03-03T12:58:15;29.27;;;15.20;;
19951;SDS011;10137;49.406;19.484;2023-03-03T13:00:58;30.43;;;14.80;;
19951;SDS011;10137;49.406;19.484;2023-03-03T13:03:38;21.13;;;12.33;;
19951;SDS011;10137;49.406;19.484;2023-03-03T13:06:10;23.90;;;12.50;;
19951;SDS011;10137;49.406;19.484;2023-03-03T13:08:48;27.57;;;15.10;;
19951;SDS011;10137;49.406;19.484;2023-03-03T13:11:26;29.83;;;15.73;;
19951;SDS011;10137;49.406;19.484;2023-03-03T13:14:12;35.70;;;18.20;;
19951;SDS011;10137;49.406;19.484;2023-03-03T13:16:48;39.83;;;16.80;;
19951;SDS011;10137;49.406;19.484;2023-03-03T13:19:28;32.17;;;15.97;;
19951;SDS011;10137;49.406;19.484;2023-03-03T13:21:59;30.63;;;17.10;;
19951;SDS011;10137;49.406;19.484;2023-03-03T13:24:34;41.37;;;17.93;;
19951;SDS011;10137;49.406;19.484;2023-03-03T13:27:09;35.03;;;16.63;;
19951;SDS011;10137;49.406;19.484;2023-03-03T13:29:39;35.37;;;17.23;;
19951;SDS011;10137;49.406;19.484;2023-03-03T13:32:09;29.90;;;16.33;;
19951;SDS011;10137;49.406;19.484;2023-03-03T13:34:42;29.97;;;15.83;;
19951;SDS011;10137;49.406;19.484;2023-03-03T13:37:18;29.17;;;16.30;;
19951;SDS011;10137;49.406;19.484;2023-03-03T13:39:51;40.17;;;16.90;;
19951;SDS011;10137;49.406;19.484;2023-03-03T13:42:25;37.97;;;15.30;;
19951;SDS011;10137;49.406;19.484;2023-03-03T13:44:58;33.47;;;16.10;;
19951;SDS011;10137;49.406;19.484;2023-03-03T13:47:30;30.40;;;15.27;;
19951;SDS011;10137;49.406;19.484;2023-03-03T13:50:17;27.37;;;13.93;;
19951;SDS011;10137;49.406;19.484;2023-03-03T13:52:50;30.40;;;15.87;;
19951;SDS011;10137;49.406;19.484;2023-03-03T13:55:30;33.83;;;15.70;;
19951;SDS011;10137;49.406;19.484;2023-03-03T13:58:07;37.73;;;17.63;;
19951;SDS011;10137;49.406;19.484;2023-03-03T14:00:48;33.40;;;17.37;;
19951;SDS011;10137;49.406;19.484;2023-03-03T14:06:23;35.27;;;15.13;;
19951;SDS011;10137;49.406;19.484;2023-03-03T14:11:48;47.70;;;19.63;;
19951;SDS011;10137;49.406;19.484;2023-03-03T14:14:27;33.10;;;16.17;;
19951;SDS011;10137;49.406;19.484;2023-03-03T14:17:08;24.90;;;13.20;;
19951;SDS011;10137;49.406;19.484;2023-03-03T14:19:41;24.53;;;12.77;;
19951;SDS011;10137;49.406;19.484;2023-03-03T14:22:15;26.80;;;11.93;;
19951;SDS011;10137;49.406;19.484;2023-03-03T14:27:38;28.80;;;14.13;;
19951;SDS011;10137;49.406;19.484;2023-03-03T14:30:25;32.43;;;15.60;;
19951;SDS011;10137;49.406;19.484;2023-03-03T14:32:58;32.63;;;14.43;;
19951;SDS011;10137;49.406;19.484;2023-03-03T14:35:47;33.80;;;12.93;;
19951;SDS011;10137;49.406;19.484;2023-03-03T14:38:35;33.07;;;14.53;;
19951;SDS011;10137;49.406;19.484;2023-03-03T14:41:11;25.47;;;11.93;;
19951;SDS011;10137;49.406;19.484;2023-03-03T14:43:41;23.60;;;12.03;;
19951;SDS011;10137;49.406;19.484;2023-03-03T14:46:31;22.73;;;10.97;;
19951;SDS011;10137;49.406;19.484;2023-03-03T14:49:01;22.63;;;11.50;;
19951;SDS011;10137;49.406;19.484;2023-03-03T14:51:32;29.53;;;14.97;;
19951;SDS011;10137;49.406;19.484;2023-03-03T14:54:07;24.77;;;13.33;;
19951;SDS011;10137;49.406;19.484;2023-03-03T14:56:52;16.73;;;8.20;;
19951;SDS011;10137;49.406;19.484;2023-03-03T14:59:23;19.03;;;8.00;;
19951;SDS011;10137;49.406;19.484;2023-03-03T15:01:57;14.97;;;7.83;;
19951;SDS011;10137;49.406;19.484;2023-03-03T15:04:33;13.23;;;6.97;;
19951;SDS011;10137;49.406;19.484;2023-03-03T15:07:00;16.67;;;7.50;;
19951;SDS011;10137;49.406;19.484;2023-03-03T15:09:47;15.60;;;7.37;;
19951;SDS011;10137;49.406;19.484;2023-03-03T15:12:19;29.63;;;10.67;;
19951;SDS011;10137;49.406;19.484;2023-03-03T15:14:48;32.53;;;13.47;;